地図

経路データ

SID SEASON NUMBER BASIN SUBBASIN NAME ISO_TIME NATURE LAT LON WMO_WIND WMO_PRES WMO_AGENCY TRACK_TYPE DIST2LAND LANDFALL IFLAG USA_AGENCY USA_ATCF_ID USA_LAT USA_LON USA_RECORD USA_STATUS USA_WIND USA_PRES USA_SSHS USA_R34_NE USA_R34_SE USA_R34_SW USA_R34_NW USA_R50_NE USA_R50_SE USA_R50_SW USA_R50_NW USA_R64_NE USA_R64_SE USA_R64_SW USA_R64_NW USA_POCI USA_ROCI USA_RMW USA_EYE TOKYO_LAT TOKYO_LON TOKYO_GRADE TOKYO_WIND TOKYO_PRES TOKYO_R50_DIR TOKYO_R50_LONG TOKYO_R50_SHORT TOKYO_R30_DIR TOKYO_R30_LONG TOKYO_R30_SHORT TOKYO_LAND CMA_LAT CMA_LON CMA_CAT CMA_WIND CMA_PRES HKO_LAT HKO_LON HKO_CAT HKO_WIND HKO_PRES NEWDELHI_LAT NEWDELHI_LON NEWDELHI_GRADE NEWDELHI_WIND NEWDELHI_PRES NEWDELHI_CI NEWDELHI_DP NEWDELHI_POCI REUNION_LAT REUNION_LON REUNION_TYPE REUNION_WIND REUNION_PRES REUNION_TNUM REUNION_CI REUNION_RMW REUNION_R34_NE REUNION_R34_SE REUNION_R34_SW REUNION_R34_NW REUNION_R50_NE REUNION_R50_SE REUNION_R50_SW REUNION_R50_NW REUNION_R64_NE REUNION_R64_SE REUNION_R64_SW REUNION_R64_NW BOM_LAT BOM_LON BOM_TYPE BOM_WIND BOM_PRES BOM_TNUM BOM_CI BOM_RMW BOM_R34_NE BOM_R34_SE BOM_R34_SW BOM_R34_NW BOM_R50_NE BOM_R50_SE BOM_R50_SW BOM_R50_NW BOM_R64_NE BOM_R64_SE BOM_R64_SW BOM_R64_NW BOM_ROCI BOM_POCI BOM_EYE BOM_POS_METHOD BOM_PRES_METHOD NADI_LAT NADI_LON NADI_CAT NADI_WIND NADI_PRES WELLINGTON_LAT WELLINGTON_LON WELLINGTON_WIND WELLINGTON_PRES DS824_LAT DS824_LON DS824_STAGE DS824_WIND DS824_PRES TD9636_LAT TD9636_LON TD9636_STAGE TD9636_WIND TD9636_PRES TD9635_LAT TD9635_LON TD9635_WIND TD9635_PRES TD9635_ROCI NEUMANN_LAT NEUMANN_LON NEUMANN_CLASS NEUMANN_WIND NEUMANN_PRES MLC_LAT MLC_LON MLC_CLASS MLC_WIND MLC_PRES USA_GUST BOM_GUST BOM_GUST_PER REUNION_GUST REUNION_GUST_PER USA_SEAHGT USA_SEARAD_NE USA_SEARAD_SE USA_SEARAD_SW USA_SEARAD_NW STORM_SPEED STORM_DIR
1990236N13314 1990 74 NA NA GUSTAV 1990-08-24 06:00:00 TS 12.6000 -45.9000 25 1010 hurdat_atl main 1103 1081 O_____________ hurdat_atl AL081990 12.6000 -45.9000 TD 25 1010 -1 10 287
1990236N13314 1990 74 NA NA GUSTAV 1990-08-24 09:00:00 TS 12.7451 -46.3875 main 1081 1065 P_____________ AL081990 12.7451 -46.3875 TD 27 1009 -1 10 287
1990236N13314 1990 74 NA NA GUSTAV 1990-08-24 12:00:00 TS 12.9000 -46.9000 30 1009 hurdat_atl main 1065 1043 O_____________ hurdat_atl AL081990 12.9000 -46.9000 TD 30 1009 -1 11 287
1990236N13314 1990 74 NA NA GUSTAV 1990-08-24 15:00:00 TS 13.0650 -47.4499 main 1053 1028 P_____________ AL081990 13.0650 -47.4499 TD 30 1008 -1 11 286
1990236N13314 1990 74 NA NA GUSTAV 1990-08-24 18:00:00 TS 13.2000 -48.0000 30 1007 hurdat_atl main 1028 1007 O_____________ hurdat_atl AL081990 13.2000 -48.0000 TD 30 1007 -1 10 281
1990236N13314 1990 74 NA NA GUSTAV 1990-08-24 21:00:00 TS 13.2573 -48.5002 main 1012 988 P_____________ AL081990 13.2573 -48.5002 TD 32 1006 -1 10 276
1990236N13314 1990 74 NA NA GUSTAV 1990-08-25 00:00:00 TS 13.3000 -49.0000 35 1005 hurdat_atl main 988 974 O_____________ hurdat_atl AL081990 13.3000 -49.0000 TS 35 1005 0 10 278
1990236N13314 1990 74 NA NA GUSTAV 1990-08-25 03:00:00 TS 13.3924 -49.5425 main 976 962 P_____________ AL081990 13.3924 -49.5425 TS 37 1004 0 11 281
1990236N13314 1990 74 NA NA GUSTAV 1990-08-25 06:00:00 TS 13.5000 -50.1000 40 1004 hurdat_atl main 962 948 O_____________ hurdat_atl AL081990 13.5000 -50.1000 TS 40 1004 0 11 281
1990236N13314 1990 74 NA NA GUSTAV 1990-08-25 09:00:00 TS 13.6074 -50.6500 main 948 933 P_____________ AL081990 13.6074 -50.6500 TS 42 1003 0 11 281
1990236N13314 1990 74 NA NA GUSTAV 1990-08-25 12:00:00 TS 13.7000 -51.2000 45 1002 hurdat_atl main 933 915 O_____________ hurdat_atl AL081990 13.7000 -51.2000 TS 45 1002 0 11 278
1990236N13314 1990 74 NA NA GUSTAV 1990-08-25 15:00:00 TS 13.7499 -51.7576 main 912 909 P_____________ AL081990 13.7499 -51.7576 TS 47 1001 0 11 275
1990236N13314 1990 74 NA NA GUSTAV 1990-08-25 18:00:00 TS 13.8000 -52.3000 50 1000 hurdat_atl main 909 902 O_____________ hurdat_atl AL081990 13.8000 -52.3000 TS 50 1000 0 10 278
1990236N13314 1990 74 NA NA GUSTAV 1990-08-25 21:00:00 TS 13.8923 -52.8000 main 909 905 P_____________ AL081990 13.8923 -52.8000 TS 52 998 0 10 282
1990236N13314 1990 74 NA NA GUSTAV 1990-08-26 00:00:00 TS 14.0000 -53.3000 55 997 hurdat_atl main 912 870 O_____________ hurdat_atl AL081990 14.0000 -53.3000 TS 55 997 0 10 281
1990236N13314 1990 74 NA NA GUSTAV 1990-08-26 03:00:00 TS 14.0924 -53.8426 main 870 817 P_____________ AL081990 14.0924 -53.8426 TS 57 995 0 11 281
1990236N13314 1990 74 NA NA GUSTAV 1990-08-26 06:00:00 TS 14.2000 -54.4000 60 993 hurdat_atl main 817 775 O_____________ hurdat_atl AL081990 14.2000 -54.4000 TS 60 993 0 11 282
1990236N13314 1990 74 NA NA GUSTAV 1990-08-26 09:00:00 TS 14.3275 -54.9651 main 766 733 P_____________ AL081990 14.3275 -54.9651 TS 62 991 0 11 286
1990236N13314 1990 74 NA NA GUSTAV 1990-08-26 12:00:00 TS 14.5000 -55.5000 65 990 hurdat_atl main 733 703 O_____________ hurdat_atl AL081990 14.5000 -55.5000 HU 65 990 1 11 293
1990236N13314 1990 74 NA NA GUSTAV 1990-08-26 15:00:00 TS 14.7499 -55.9874 main 703 693 P_____________ AL081990 14.7499 -55.9874 HU 67 987 1 10 300
1990236N13314 1990 74 NA NA GUSTAV 1990-08-26 18:00:00 TS 15.0000 -56.4000 70 984 hurdat_atl main 693 678 O_____________ hurdat_atl AL081990 15.0000 -56.4000 HU 70 984 1 8 299
1990236N13314 1990 74 NA NA GUSTAV 1990-08-26 21:00:00 TS 15.1423 -56.7153 main 678 671 P_____________ AL081990 15.1423 -56.7153 HU 72 982 1 7 297
1990236N13314 1990 74 NA NA GUSTAV 1990-08-27 00:00:00 TS 15.3000 -57.0000 75 980 hurdat_atl main 673 666 O_____________ hurdat_atl AL081990 15.3000 -57.0000 HU 75 980 1 8 304
1990236N13314 1990 74 NA NA GUSTAV 1990-08-27 03:00:00 TS 15.5701 -57.3724 main 673 666 P_____________ AL081990 15.5701 -57.3724 HU 80 976 1 9 312
1990236N13314 1990 74 NA NA GUSTAV 1990-08-27 06:00:00 TS 15.9000 -57.7000 85 973 hurdat_atl main 683 683 O_____________ hurdat_atl AL081990 15.9000 -57.7000 HU 85 973 2 8 324
1990236N13314 1990 74 NA NA GUSTAV 1990-08-27 09:00:00 TS 16.2424 -57.8876 main 701 701 P_____________ AL081990 16.2424 -57.8876 HU 87 970 2 8 338
1990236N13314 1990 74 NA NA GUSTAV 1990-08-27 12:00:00 TS 16.6000 -58.0000 90 967 hurdat_atl main 735 735 O_____________ hurdat_atl AL081990 16.6000 -58.0000 HU 90 967 2 7 342
1990236N13314 1990 74 NA NA GUSTAV 1990-08-27 15:00:00 TS 16.9425 -58.1225 main 761 761 P_____________ AL081990 16.9425 -58.1225 HU 92 966 2 7 345
1990236N13314 1990 74 NA NA GUSTAV 1990-08-27 18:00:00 TS 17.3000 -58.2000 95 965 hurdat_atl main 790 784 O_____________ hurdat_atl AL081990 17.3000 -58.2000 HU 95 965 2 8 353
1990236N13314 1990 74 NA NA GUSTAV 1990-08-27 21:00:00 TS 17.6850 -58.2225 main 784 782 P_____________ AL081990 17.6850 -58.2225 HU 95 965 2 8 1
1990236N13314 1990 74 NA NA GUSTAV 1990-08-28 00:00:00 TS 18.1000 -58.2000 95 966 hurdat_atl main 782 780 O_____________ hurdat_atl AL081990 18.1000 -58.2000 HU 95 966 2 9 4
1990236N13314 1990 74 NA NA GUSTAV 1990-08-28 03:00:00 TS 18.5350 -58.1575 main 780 780 P_____________ AL081990 18.5350 -58.1575 HU 92 967 2 9 6
1990236N13314 1990 74 NA NA GUSTAV 1990-08-28 06:00:00 TS 19.0000 -58.1000 90 969 hurdat_atl main 792 792 O_____________ hurdat_atl AL081990 19.0000 -58.1000 HU 90 969 2 10 7
1990236N13314 1990 74 NA NA GUSTAV 1990-08-28 09:00:00 TS 19.4850 -58.0425 main 808 808 P_____________ AL081990 19.4850 -58.0425 HU 87 971 2 10 6
1990236N13314 1990 74 NA NA GUSTAV 1990-08-28 12:00:00 TS 20.0000 -58.0000 85 973 hurdat_atl main 817 817 O_____________ hurdat_atl AL081990 20.0000 -58.0000 HU 85 973 2 11 2
1990236N13314 1990 74 NA NA GUSTAV 1990-08-28 15:00:00 TS 20.5425 -58.0073 main 830 830 P_____________ AL081990 20.5425 -58.0073 HU 82 975 1 11 0
1990236N13314 1990 74 NA NA GUSTAV 1990-08-28 18:00:00 TS 21.1000 -58.0000 80 978 hurdat_atl main 850 850 O_____________ hurdat_atl AL081990 21.1000 -58.0000 HU 80 978 1 11 5
1990236N13314 1990 74 NA NA GUSTAV 1990-08-28 21:00:00 TS 21.6800 -57.9003 main 884 884 P_____________ AL081990 21.6800 -57.9003 HU 77 979 1 11 10
1990236N13314 1990 74 NA NA GUSTAV 1990-08-29 00:00:00 TS 22.2000 -57.8000 75 981 hurdat_atl main 917 917 O_____________ hurdat_atl AL081990 22.2000 -57.8000 HU 75 981 1 9 7
1990236N13314 1990 74 NA NA GUSTAV 1990-08-29 03:00:00 TS 22.5725 -57.7848 main 938 938 P_____________ AL081990 22.5725 -57.7848 HU 72 982 1 7 0
1990236N13314 1990 74 NA NA GUSTAV 1990-08-29 06:00:00 TS 22.9000 -57.8000 70 984 hurdat_atl main 954 954 O_____________ hurdat_atl AL081990 22.9000 -57.8000 HU 70 984 1 7 0
1990236N13314 1990 74 NA NA GUSTAV 1990-08-29 09:00:00 TS 23.3000 -57.8000 main 977 977 P_____________ AL081990 23.3000 -57.8000 HU 72 983 1 8 1
1990236N13314 1990 74 NA NA GUSTAV 1990-08-29 12:00:00 TS 23.7000 -57.8000 75 982 hurdat_atl main 1002 1002 O_____________ hurdat_atl AL081990 23.7000 -57.8000 HU 75 982 1 8 0
1990236N13314 1990 74 NA NA GUSTAV 1990-08-29 15:00:00 TS 24.0500 -57.8000 main 1028 1022 P_____________ AL081990 24.0500 -57.8000 HU 75 980 1 7 0
1990236N13314 1990 74 NA NA GUSTAV 1990-08-29 18:00:00 TS 24.4000 -57.8000 75 979 hurdat_atl main 1049 1049 O_____________ hurdat_atl AL081990 24.4000 -57.8000 HU 75 979 1 7 0
1990236N13314 1990 74 NA NA GUSTAV 1990-08-29 21:00:00 TS 24.7925 -57.8000 main 1077 1077 P_____________ AL081990 24.7925 -57.8000 HU 77 977 1 8 1
1990236N13314 1990 74 NA NA GUSTAV 1990-08-30 00:00:00 TS 25.2000 -57.8000 80 975 hurdat_atl main 1106 1106 O_____________ hurdat_atl AL081990 25.2000 -57.8000 HU 80 975 1 8 0
1990236N13314 1990 74 NA NA GUSTAV 1990-08-30 03:00:00 TS 25.5850 -57.8000 main 1137 1137 P_____________ AL081990 25.5850 -57.8000 HU 82 973 1 8 1
1990236N13314 1990 74 NA NA GUSTAV 1990-08-30 06:00:00 TS 26.0000 -57.8000 85 972 hurdat_atl main 1168 1168 O_____________ hurdat_atl AL081990 26.0000 -57.8000 HU 85 972 2 9 1
1990236N13314 1990 74 NA NA GUSTAV 1990-08-30 09:00:00 TS 26.5000 -57.8000 main 1208 1208 P_____________ AL081990 26.5000 -57.8000 HU 87 970 2 10 1
1990236N13314 1990 74 NA NA GUSTAV 1990-08-30 12:00:00 TS 27.0000 -57.8000 90 968 hurdat_atl main 1249 1249 O_____________ hurdat_atl AL081990 27.0000 -57.8000 HU 90 968 2 9 359
1990236N13314 1990 74 NA NA GUSTAV 1990-08-30 15:00:00 TS 27.3925 -57.8074 main 1283 1283 P_____________ AL081990 27.3925 -57.8074 HU 92 965 2 8 1
1990236N13314 1990 74 NA NA GUSTAV 1990-08-30 18:00:00 TS 27.8000 -57.8000 95 963 hurdat_atl main 1318 1318 O_____________ hurdat_atl AL081990 27.8000 -57.8000 HU 95 963 2 9 3
1990236N13314 1990 74 NA NA GUSTAV 1990-08-30 21:00:00 TS 28.3050 -57.7649 main 1362 1362 P_____________ AL081990 28.3050 -57.7649 HU 97 960 3 11 5
1990236N13314 1990 74 NA NA GUSTAV 1990-08-31 00:00:00 TS 28.9000 -57.7000 100 958 hurdat_atl main 1421 1421 O_____________ hurdat_atl AL081990 28.9000 -57.7000 HU 100 958 3 13 6
1990236N13314 1990 74 NA NA GUSTAV 1990-08-31 03:00:00 TS 29.5775 -57.6149 main 1490 1490 P_____________ AL081990 29.5775 -57.6149 HU 102 957 3 14 7
1990236N13314 1990 74 NA NA GUSTAV 1990-08-31 06:00:00 TS 30.3000 -57.5000 105 956 hurdat_atl main 1560 1555 O_____________ hurdat_atl AL081990 30.3000 -57.5000 HU 105 956 3 14 8
1990236N13314 1990 74 NA NA GUSTAV 1990-08-31 09:00:00 TS 31.0073 -57.3868 main 1555 1492 P_____________ AL081990 31.0073 -57.3868 HU 102 957 3 14 10
1990236N13314 1990 74 NA NA GUSTAV 1990-08-31 12:00:00 TS 31.7000 -57.2000 100 959 hurdat_atl main 1492 1445 O_____________ hurdat_atl AL081990 31.7000 -57.2000 HU 100 959 3 14 17
1990236N13314 1990 74 NA NA GUSTAV 1990-08-31 15:00:00 TS 32.3500 -56.8946 main 1445 1396 P_____________ AL081990 32.3500 -56.8946 HU 100 960 3 14 24
1990236N13314 1990 74 NA NA GUSTAV 1990-08-31 18:00:00 TS 33.0000 -56.5000 100 961 hurdat_atl main 1396 1349 O_____________ hurdat_atl AL081990 33.0000 -56.5000 HU 100 961 3 15 27
1990236N13314 1990 74 NA NA GUSTAV 1990-08-31 21:00:00 TS 33.7073 -56.0796 main 1349 1289 P_____________ AL081990 33.7073 -56.0796 HU 97 962 3 16 28
1990236N13314 1990 74 NA NA GUSTAV 1990-09-01 00:00:00 TS 34.4000 -55.6000 95 964 hurdat_atl main 1289 1243 O_____________ hurdat_atl AL081990 34.4000 -55.6000 HU 95 964 2 15 32
1990236N13314 1990 74 NA NA GUSTAV 1990-09-01 03:00:00 TS 35.0147 -55.0789 main 1243 1203 P_____________ AL081990 35.0147 -55.0789 HU 92 965 2 15 37
1990236N13314 1990 74 NA NA GUSTAV 1990-09-01 06:00:00 TS 35.6000 -54.5000 90 967 hurdat_atl main 1203 1157 O_____________ hurdat_atl AL081990 35.6000 -54.5000 HU 90 967 2 15 40
1990236N13314 1990 74 NA NA GUSTAV 1990-09-01 09:00:00 TS 36.2000 -53.8570 main 1157 1090 P_____________ AL081990 36.2000 -53.8570 HU 87 968 2 16 41
1990236N13314 1990 74 NA NA GUSTAV 1990-09-01 12:00:00 TS 36.8000 -53.2000 85 970 hurdat_atl main 1090 1024 O_____________ hurdat_atl AL081990 36.8000 -53.2000 HU 85 970 2 16 41
1990236N13314 1990 74 NA NA GUSTAV 1990-09-01 15:00:00 TS 37.3847 -52.5837 main 1024 961 P_____________ AL081990 37.3847 -52.5837 HU 82 972 1 15 38
1990236N13314 1990 74 NA NA GUSTAV 1990-09-01 18:00:00 TS 38.0000 -52.0000 80 974 hurdat_atl main 961 889 O_____________ hurdat_atl AL081990 38.0000 -52.0000 HU 80 974 1 16 35
1990236N13314 1990 74 NA NA GUSTAV 1990-09-01 21:00:00 TS 38.6921 -51.4417 main 890 821 P_____________ AL081990 38.6921 -51.4417 HU 77 976 1 16 32
1990236N13314 1990 74 NA NA GUSTAV 1990-09-02 00:00:00 TS 39.4000 -50.9000 75 978 hurdat_atl main 821 767 O_____________ hurdat_atl AL081990 39.4000 -50.9000 HU 75 978 1 16 32
1990236N13314 1990 74 NA NA GUSTAV 1990-09-02 03:00:00 TS 40.0496 -50.3559 main 767 710 P_____________ AL081990 40.0496 -50.3559 HU 72 980 1 15 33
1990236N13314 1990 74 NA NA GUSTAV 1990-09-02 06:00:00 TS 40.7000 -49.8000 70 982 hurdat_atl main 710 666 O_____________ hurdat_atl AL081990 40.7000 -49.8000 HU 70 982 1 16 34
1990236N13314 1990 74 NA NA GUSTAV 1990-09-02 09:00:00 TS 41.3704 -49.1627 main 659 618 P_____________ AL081990 41.3704 -49.1627 HU 67 983 1 17 33
1990236N13314 1990 74 NA NA GUSTAV 1990-09-02 12:00:00 TS 42.1000 -48.6000 65 985 hurdat_atl main 618 571 O_____________ hurdat_atl AL081990 42.1000 -48.6000 HU 65 985 1 16 22
1990236N13314 1990 74 NA NA GUSTAV 1990-09-02 15:00:00 TS 42.8887 -48.3164 main 563 518 P_____________ AL081990 42.8887 -48.3164 HU 62 986 0 18 14
1990236N13314 1990 74 NA NA GUSTAV 1990-09-02 18:00:00 TS 43.8000 -48.0000 60 988 hurdat_atl main 511 484 O_____________ hurdat_atl AL081990 43.8000 -48.0000 TS 60 988 0 21 20
1990236N13314 1990 74 NA NA GUSTAV 1990-09-02 21:00:00 TS 44.8399 -47.3532 main 485 482 P_____________ AL081990 44.8399 -47.3532 TS 57 990 0 24 26
1990236N13314 1990 74 NA NA GUSTAV 1990-09-03 00:00:00 TS 46.0000 -46.5000 55 993 hurdat_atl main 491 491 O_____________ hurdat_atl AL081990 46.0000 -46.5000 TS 55 993 0 27 28
1990236N13314 1990 74 NA NA GUSTAV 1990-09-03 03:00:00 TS 47.2342 -45.5375 main 533 532 P_____________ AL081990 47.2342 -45.5375 TS 55 995 0 28 29
1990236N13314 1990 74 NA NA GUSTAV 1990-09-03 06:00:00 ET 48.5000 -44.5000 55 997 hurdat_atl main 609 O_____________ hurdat_atl AL081990 48.5000 -44.5000 EX 55 997 -4 29 29

IBTrACS Databaseについて

本データベースは、米国NOAAが公開する1842年以降の世界の熱帯低気圧のベストトラックデータアーカイブInternational Best Track Archive for Climate Stewardship (IBTrACS)を、ウェブで閲覧しやすい形式に変換したものです。

最終更新日:2021-10-21